Time;durP1;ratioP1;P1;durP2;ratioP2;P2;SDS_P1;SDS_P2;PMS_P1;PMS_P2;Temp;Humidity;BMP_temperature;BMP_pressure;BME280_temperature;BME280_humidity;BME280_pressure;Samples;Min_cycle;Max_cycle;Signal;HPM_P1;HPM_P2
2023/01/08 00:01:42;;;;;;;1.73;1.38;;;;;;;;;;5067065;28;20024;-68
2023/01/08 00:04:09;;;;;;;2.95;1.33;;;;;;;;;;5068706;28;20020;-69
2023/01/08 00:06:36;;;;;;;3.15;1.85;;;;;;;;;;5068489;28;20047;-69
2023/01/08 00:09:03;;;;;;;3.92;1.73;;;;;;;;;;5067635;28;20478;-69
2023/01/08 00:11:29;;;;;;;3.28;1.80;;;;;;;;;;5065185;28;20020;-68
2023/01/08 00:13:55;;;;;;;3.58;2.47;;;;;;;;;;5065837;28;20036;-68
2023/01/08 00:16:21;;;;;;;9.23;5.35;;;;;;;;;;5066422;28;20040;-69
2023/01/08 00:18:47;;;;;;;7.45;4.65;;;;;;;;;;5066813;28;20032;-68
2023/01/08 00:21:14;;;;;;;5.82;3.03;;;;;;;;;;5062479;28;20036;-69
2023/01/08 00:23:40;;;;;;;4.53;2.25;;;;;;;;;;5065969;28;20496;-68
2023/01/08 00:26:09;;;;;;;2.45;2.05;;;;;;;;;;5076452;28;20040;-68
2023/01/08 00:28:36;;;;;;;3.67;2.40;;;;;;;;;;5073846;28;20040;-69
2023/01/08 00:31:03;;;;;;;3.33;2.00;;;;;;;;;;5070610;28;20038;-68
2023/01/08 00:33:30;;;;;;;4.30;1.90;;;;;;;;;;5071521;28;20809;-68
2023/01/08 00:35:56;;;;;;;2.13;1.90;;;;;;;;;;5066878;28;20032;-68
2023/01/08 00:38:29;;;;;;;3.25;1.92;;;;;;;;;;5066631;28;20044;-70
2023/01/08 00:40:55;;;;;;;3.42;1.80;;;;;;;;;;5066194;28;20026;-68
2023/01/08 00:43:21;;;;;;;3.70;1.70;;;;;;;;;;5065343;28;20096;-68
2023/01/08 00:45:50;;;;;;;4.55;2.70;;;;;;;;;;5067535;28;20034;-68
2023/01/08 00:48:16;;;;;;;4.28;3.13;;;;;;;;;;5065341;28;20024;-68
2023/01/08 00:50:42;;;;;;;5.63;3.58;;;;;;;;;;5077188;28;20032;-69
2023/01/08 00:53:08;;;;;;;4.53;2.70;;;;;;;;;;5070889;28;20033;-69
2023/01/08 00:55:34;;;;;;;2.80;1.83;;;;;;;;;;5070152;28;20028;-69
2023/01/08 00:58:01;;;;;;;3.25;1.73;;;;;;;;;;5066057;28;20191;-68
2023/01/08 01:00:27;;;;;;;4.20;1.83;;;;;;;;;;5066556;28;20024;-69
2023/01/08 01:02:53;;;;;;;6.20;1.73;;;;;;;;;;5065604;28;20024;-68
2023/01/08 01:05:19;;;;;;;3.65;1.70;;;;;;;;;;5064704;28;20785;-69
2023/01/08 01:07:46;;;;;;;2.85;1.50;;;;;;;;;;5069610;28;20476;-69
2023/01/08 01:10:13;;;;;;;3.22;1.60;;;;;;;;;;5068605;28;20476;-69
2023/01/08 01:12:39;;;;;;;2.60;1.88;;;;;;;;;;5069079;28;20028;-68
2023/01/08 01:15:06;;;;;;;3.15;1.65;;;;;;;;;;5068711;28;20032;-69
2023/01/08 01:17:33;;;;;;;2.47;1.73;;;;;;;;;;5068196;28;20423;-69
2023/01/08 01:19:59;;;;;;;4.50;2.00;;;;;;;;;;5070074;28;20020;-69
2023/01/08 01:22:25;;;;;;;3.75;1.85;;;;;;;;;;5067725;28;20773;-68
2023/01/08 01:24:51;;;;;;;3.53;1.58;;;;;;;;;;5067861;28;20967;-69
2023/01/08 01:27:17;;;;;;;3.17;1.58;;;;;;;;;;5064166;28;20724;-69
2023/01/08 01:29:43;;;;;;;3.90;2.22;;;;;;;;;;5065370;28;20712;-69
2023/01/08 01:32:10;;;;;;;3.80;1.70;;;;;;;;;;5072113;28;20032;-68
2023/01/08 01:34:36;;;;;;;3.28;1.85;;;;;;;;;;5072067;28;20032;-68
2023/01/08 01:37:03;;;;;;;5.25;2.10;;;;;;;;;;5067438;28;20057;-68
2023/01/08 01:39:29;;;;;;;3.45;1.95;;;;;;;;;;5066399;28;20074;-68
2023/01/08 01:41:55;;;;;;;6.13;2.40;;;;;;;;;;5068564;28;20570;-69
2023/01/08 01:44:40;;;;;;;3.03;1.88;;;;;;;;;;5065194;28;20043;-68
2023/01/08 01:47:06;;;;;;;4.03;2.65;;;;;;;;;;5064697;28;20581;-68
2023/01/08 01:49:33;;;;;;;6.22;2.08;;;;;;;;;;5064309;28;20622;-69
2023/01/08 01:52:01;;;;;;;5.35;2.40;;;;;;;;;;5076029;28;20032;-68
2023/01/08 01:54:28;;;;;;;3.28;2.17;;;;;;;;;;5071874;28;20043;-69
2023/01/08 01:56:54;;;;;;;4.07;2.10;;;;;;;;;;5068598;28;20042;-68
2023/01/08 01:59:20;;;;;;;5.78;2.03;;;;;;;;;;5066245;28;20109;-68
2023/01/08 02:01:47;;;;;;;6.57;2.10;;;;;;;;;;5069696;28;20028;-69
2023/01/08 02:04:13;;;;;;;4.00;2.00;;;;;;;;;;5063603;28;20017;-69
2023/01/08 02:06:54;;;;;;;4.15;1.83;;;;;;;;;;5065461;28;20191;-68
2023/01/08 02:09:20;;;;;;;2.70;1.85;;;;;;;;;;5059970;28;20040;-69
2023/01/08 02:14:48;;;;;;;2.65;1.80;;;;;;;;;;5069993;28;20028;-69
2023/01/08 02:17:16;;;;;;;5.70;1.80;;;;;;;;;;5067860;28;20764;-69
2023/01/08 02:19:45;;;;;;;2.65;1.98;;;;;;;;;;5070127;28;20747;-68
2023/01/08 02:22:14;;;;;;;3.10;2.10;;;;;;;;;;5064825;28;20604;-69
2023/01/08 02:25:16;;;;;;;3.60;1.90;;;;;;;;;;5065857;28;20162;-68
2023/01/08 02:27:45;;;;;;;2.10;1.73;;;;;;;;;;5046318;28;20056;-69
2023/01/08 02:30:11;;;;;;;2.95;1.65;;;;;;;;;;5062423;28;20036;-69
2023/01/08 02:32:39;;;;;;;3.65;1.65;;;;;;;;;;5059952;28;20035;-69
2023/01/08 02:35:06;;;;;;;4.43;1.83;;;;;;;;;;5074264;28;20092;-68
2023/01/08 02:37:32;;;;;;;5.15;1.95;;;;;;;;;;5072273;28;20288;-69
2023/01/08 02:40:17;;;;;;;2.90;1.63;;;;;;;;;;5066419;28;20028;-68
2023/01/08 02:42:49;;;;;;;4.05;2.10;;;;;;;;;;5068898;28;20034;-69
2023/01/08 02:45:15;;;;;;;;;;;;;;;;;;5066409;28;20016;-69
2023/01/08 02:47:44;;;;;;;2.08;1.70;;;;;;;;;;5066488;28;19942;-68
2023/01/08 02:50:14;;;;;;;3.95;1.80;;;;;;;;;;5063466;28;20021;-68
2023/01/08 02:52:44;;;;;;;4.40;1.80;;;;;;;;;;5063052;28;20067;-69
2023/01/08 02:55:11;;;;;;;3.25;2.03;;;;;;;;;;5068687;28;20021;-69
2023/01/08 02:57:38;;;;;;;2.50;1.80;;;;;;;;;;5067996;28;20037;-69
2023/01/08 03:00:04;;;;;;;2.08;1.63;;;;;;;;;;5070540;28;20035;-68
2023/01/08 03:02:32;;;;;;;3.97;2.17;;;;;;;;;;5069815;28;20040;-69
2023/01/08 03:05:01;;;;;;;4.28;1.88;;;;;;;;;;5064566;28;20023;-68
2023/01/08 03:07:27;;;;;;;3.35;1.88;;;;;;;;;;5063720;28;20033;-68
2023/01/08 03:09:53;;;;;;;2.08;1.50;;;;;;;;;;5067485;28;20012;-68
2023/01/08 03:12:40;;;;;;;3.72;1.85;;;;;;;;;;5062508;28;20055;-69
2023/01/08 03:15:08;;;;;;;5.05;1.80;;;;;;;;;;5068630;28;20027;-68
2023/01/08 03:17:36;;;;;;;3.30;1.83;;;;;;;;;;5064553;28;20051;-69
2023/01/08 03:20:06;;;;;;;2.17;1.48;;;;;;;;;;5067839;28;20020;-68
2023/01/08 03:22:33;;;;;;;2.38;1.80;;;;;;;;;;5073800;28;20025;-69
2023/01/08 03:25:00;;;;;;;5.05;2.10;;;;;;;;;;5072584;28;20094;-68
2023/01/08 03:27:28;;;;;;;2.05;1.50;;;;;;;;;;5069625;28;20056;-69
2023/01/08 03:29:56;;;;;;;3.42;1.55;;;;;;;;;;5067012;28;20032;-69
2023/01/08 03:32:23;;;;;;;2.45;1.63;;;;;;;;;;5066187;28;20043;-69
2023/01/08 03:34:50;;;;;;;3.13;2.00;;;;;;;;;;5065461;28;20020;-69
2023/01/08 03:37:18;;;;;;;6.78;1.83;;;;;;;;;;5072300;28;20396;-69
2023/01/08 03:39:52;;;;;;;2.00;1.60;;;;;;;;;;5075202;28;20028;-69
2023/01/08 03:42:19;;;;;;;2.13;1.52;;;;;;;;;;5077514;28;20039;-68
2023/01/08 03:44:46;;;;;;;3.25;1.75;;;;;;;;;;5071484;28;20031;-68
2023/01/08 03:47:12;;;;;;;3.65;1.55;;;;;;;;;;5068428;28;20012;-68
2023/01/08 03:49:40;;;;;;;2.20;1.55;;;;;;;;;;5073512;28;20480;-68
2023/01/08 03:52:06;;;;;;;3.20;1.40;;;;;;;;;;5070491;28;20404;-68
2023/01/08 03:54:33;;;;;;;2.63;1.73;;;;;;;;;;5072207;28;20056;-68
2023/01/08 03:57:00;;;;;;;2.85;2.05;;;;;;;;;;5074243;28;20071;-69
2023/01/08 03:59:26;;;;;;;4.97;2.05;;;;;;;;;;5082712;28;20095;-69
2023/01/08 04:01:52;;;;;;;3.17;1.60;;;;;;;;;;5086302;28;20024;-69
2023/01/08 04:04:18;;;;;;;2.45;1.33;;;;;;;;;;5082614;28;20028;-69
2023/01/08 04:06:44;;;;;;;3.53;1.85;;;;;;;;;;5081254;28;20475;-68
2023/01/08 04:09:10;;;;;;;4.68;1.98;;;;;;;;;;5080093;28;20039;-68
2023/01/08 04:11:37;;;;;;;3.15;2.10;;;;;;;;;;5078573;28;20109;-69
2023/01/08 04:14:03;;;;;;;2.08;1.33;;;;;;;;;;5073454;28;20025;-69
2023/01/08 04:16:30;;;;;;;4.10;1.70;;;;;;;;;;5076610;28;20032;-68
2023/01/08 04:18:56;;;;;;;3.72;1.65;;;;;;;;;;5065758;28;20090;-68
2023/01/08 04:21:22;;;;;;;2.50;1.50;;;;;;;;;;5077219;28;20032;-69
2023/01/08 04:23:48;;;;;;;4.18;2.08;;;;;;;;;;5075979;28;20514;-69
2023/01/08 04:26:15;;;;;;;2.65;1.45;;;;;;;;;;5074447;28;20584;-69
2023/01/08 04:28:41;;;;;;;8.32;2.08;;;;;;;;;;5076744;28;20085;-68
2023/01/08 04:31:07;;;;;;;4.38;1.83;;;;;;;;;;5077664;28;20024;-69
2023/01/08 04:33:34;;;;;;;2.53;1.60;;;;;;;;;;5074076;28;20028;-69
2023/01/08 04:36:00;;;;;;;2.75;1.65;;;;;;;;;;5071717;28;20019;-68
2023/01/08 04:38:26;;;;;;;5.00;2.10;;;;;;;;;;5073716;28;20025;-68
2023/01/08 04:40:57;;;;;;;2.72;1.50;;;;;;;;;;5076706;28;20395;-68
2023/01/08 04:43:23;;;;;;;2.95;1.80;;;;;;;;;;5076763;28;20036;-68
2023/01/08 04:45:49;;;;;;;2.75;1.48;;;;;;;;;;5076232;28;20031;-68
2023/01/08 04:48:15;;;;;;;3.08;1.80;;;;;;;;;;5073315;28;20036;-69
2023/01/08 04:50:41;;;;;;;3.45;1.50;;;;;;;;;;5071979;28;20021;-68
2023/01/08 04:53:07;;;;;;;2.78;1.70;;;;;;;;;;5066223;28;20025;-69
2023/01/08 04:55:34;;;;;;;3.25;1.83;;;;;;;;;;5066586;28;20059;-68
2023/01/08 04:58:00;;;;;;;4.90;1.95;;;;;;;;;;5068630;28;20040;-68
2023/01/08 05:00:26;;;;;;;2.03;1.73;;;;;;;;;;5069146;28;20024;-68
2023/01/08 05:02:52;;;;;;;2.42;1.55;;;;;;;;;;5067873;28;20043;-68
2023/01/08 05:05:18;;;;;;;2.55;1.70;;;;;;;;;;5075365;28;20024;-68
2023/01/08 05:07:44;;;;;;;2.60;1.73;;;;;;;;;;5069152;28;20024;-68
2023/01/08 05:10:11;;;;;;;4.30;1.80;;;;;;;;;;5073285;28;20028;-69
2023/01/08 05:12:37;;;;;;;1.70;1.60;;;;;;;;;;5068680;28;20580;-68
2023/01/08 05:15:03;;;;;;;3.90;1.83;;;;;;;;;;5068758;28;20510;-68
2023/01/08 05:17:29;;;;;;;1.73;1.27;;;;;;;;;;5066172;28;20052;-68
2023/01/08 05:19:55;;;;;;;2.22;1.63;;;;;;;;;;5068619;28;20020;-68
2023/01/08 05:22:21;;;;;;;3.30;1.30;;;;;;;;;;5064510;28;20020;-69
2023/01/08 05:24:48;;;;;;;2.60;1.38;;;;;;;;;;5069563;28;20020;-68
2023/01/08 05:27:14;;;;;;;2.40;1.40;;;;;;;;;;5071851;28;20051;-68
2023/01/08 05:29:40;;;;;;;3.92;1.40;;;;;;;;;;5068485;28;20131;-68
2023/01/08 05:32:09;;;;;;;2.53;1.30;;;;;;;;;;5066772;28;20017;-68
2023/01/08 05:34:35;;;;;;;3.53;1.33;;;;;;;;;;5070622;28;20027;-68
2023/01/08 05:37:01;;;;;;;1.85;1.10;;;;;;;;;;5066234;28;20039;-68
2023/01/08 05:39:27;;;;;;;3.38;1.13;;;;;;;;;;5064221;28;20016;-68
2023/01/08 05:41:54;;;;;;;4.80;1.50;;;;;;;;;;5065729;28;20020;-68
2023/01/08 05:44:20;;;;;;;4.93;1.50;;;;;;;;;;5062606;28;20027;-68
2023/01/08 05:46:46;;;;;;;1.52;1.20;;;;;;;;;;5069748;28;20020;-68
2023/01/08 05:49:12;;;;;;;1.27;1.00;;;;;;;;;;5066871;28;20025;-68
2023/01/08 05:51:38;;;;;;;2.08;1.10;;;;;;;;;;5070064;28;20020;-68
2023/01/08 05:54:04;;;;;;;1.98;1.10;;;;;;;;;;5071161;28;20032;-68
2023/01/08 05:56:30;;;;;;;10.77;4.70;;;;;;;;;;5066273;28;20422;-68
2023/01/08 05:58:57;;;;;;;2.50;1.23;;;;;;;;;;5067464;28;20077;-68
2023/01/08 06:01:23;;;;;;;3.85;1.50;;;;;;;;;;5066295;28;20032;-68
2023/01/08 06:03:49;;;;;;;5.53;2.65;;;;;;;;;;5064460;28;20494;-68
2023/01/08 06:06:15;;;;;;;2.08;1.00;;;;;;;;;;5065229;28;20467;-68
2023/01/08 06:08:41;;;;;;;4.03;1.60;;;;;;;;;;5076372;28;20023;-68
2023/01/08 06:11:08;;;;;;;3.28;1.77;;;;;;;;;;5071236;28;20028;-68
2023/01/08 06:13:36;;;;;;;2.97;1.50;;;;;;;;;;5068773;28;20020;-68
2023/01/08 06:16:02;;;;;;;3.33;1.40;;;;;;;;;;5071279;28;20540;-68
2023/01/08 06:18:29;;;;;;;4.53;1.38;;;;;;;;;;5066799;28;20453;-69
2023/01/08 06:20:55;;;;;;;4.55;2.42;;;;;;;;;;5066484;28;20085;-68
2023/01/08 06:23:21;;;;;;;3.63;2.13;;;;;;;;;;5065447;28;20032;-69
2023/01/08 06:25:54;;;;;;;2.85;1.40;;;;;;;;;;5065492;28;20105;-68
2023/01/08 06:28:20;;;;;;;1.75;0.93;;;;;;;;;;5069488;28;20107;-69
2023/01/08 06:30:46;;;;;;;1.95;1.08;;;;;;;;;;5073345;28;20020;-68
2023/01/08 06:33:13;;;;;;;2.05;0.90;;;;;;;;;;5068123;28;20025;-69
2023/01/08 06:35:39;;;;;;;2.72;1.02;;;;;;;;;;5068389;28;20115;-69
2023/01/08 06:38:05;;;;;;;1.88;1.00;;;;;;;;;;5063671;28;20028;-68
2023/01/08 06:40:31;;;;;;;2.10;1.08;;;;;;;;;;5066746;28;20035;-68
2023/01/08 06:43:01;;;;;;;3.80;1.10;;;;;;;;;;5071963;28;20024;-68
2023/01/08 06:45:28;;;;;;;1.25;1.08;;;;;;;;;;5065152;28;20024;-68
2023/01/08 06:47:54;;;;;;;1.75;1.10;;;;;;;;;;5062588;28;20460;-69
2023/01/08 06:50:20;;;;;;;2.40;1.10;;;;;;;;;;5068946;28;20557;-69
2023/01/08 06:52:56;;;;;;;2.30;1.08;;;;;;;;;;5067472;28;20020;-68
2023/01/08 06:55:22;;;;;;;4.60;1.73;;;;;;;;;;5067001;28;20023;-69
2023/01/08 06:57:52;;;;;;;3.78;1.23;;;;;;;;;;5069156;28;20379;-68
2023/01/08 07:00:21;;;;;;;5.72;2.13;;;;;;;;;;5065015;28;20025;-69
2023/01/08 07:02:47;;;;;;;2.45;1.40;;;;;;;;;;5066388;28;20009;-68
2023/01/08 07:05:13;;;;;;;1.98;1.20;;;;;;;;;;5066815;28;20028;-69
2023/01/08 07:07:39;;;;;;;2.65;1.40;;;;;;;;;;5066512;28;20503;-68
2023/01/08 07:10:05;;;;;;;3.15;1.20;;;;;;;;;;5060218;28;20384;-68
2023/01/08 07:12:31;;;;;;;1.80;1.33;;;;;;;;;;5073676;28;20442;-68
2023/01/08 07:14:58;;;;;;;2.53;1.00;;;;;;;;;;5069832;28;20547;-69
2023/01/08 07:17:24;;;;;;;7.18;1.33;;;;;;;;;;5066942;28;20477;-71
2023/01/08 07:19:50;;;;;;;4.13;1.48;;;;;;;;;;5071980;28;20472;-72
2023/01/08 07:22:16;;;;;;;6.82;1.60;;;;;;;;;;5064091;28;20046;-72
2023/01/08 07:24:42;;;;;;;4.95;2.20;;;;;;;;;;5061400;28;20020;-71
2023/01/08 07:27:08;;;;;;;3.72;1.88;;;;;;;;;;5066433;28;20036;-69
2023/01/08 07:29:34;;;;;;;2.40;1.77;;;;;;;;;;5065851;28;20028;-69
2023/01/08 07:32:00;;;;;;;4.30;1.67;;;;;;;;;;5061787;28;20115;-69
2023/01/08 07:34:27;;;;;;;3.80;1.80;;;;;;;;;;5073947;28;20020;-70
2023/01/08 07:36:53;;;;;;;4.22;1.77;;;;;;;;;;5073967;28;20034;-70
2023/01/08 07:39:19;;;;;;;5.20;1.80;;;;;;;;;;5072936;28;20034;-69
2023/01/08 07:41:45;;;;;;;4.13;1.92;;;;;;;;;;5073602;28;20020;-70
2023/01/08 07:44:11;;;;;;;2.53;1.70;;;;;;;;;;5067868;28;20046;-69
2023/01/08 07:46:38;;;;;;;5.28;2.55;;;;;;;;;;5073094;28;21129;-69
2023/01/08 07:49:05;;;;;;;7.78;3.17;;;;;;;;;;5071008;28;20550;-69
2023/01/08 07:51:31;;;;;;;4.47;3.08;;;;;;;;;;5066332;28;20028;-69
2023/01/08 07:53:57;;;;;;;5.10;3.50;;;;;;;;;;5067828;28;20905;-70
2023/01/08 07:56:24;;;;;;;7.32;3.47;;;;;;;;;;5073272;28;20536;-69
2023/01/08 07:58:51;;;;;;;4.72;3.50;;;;;;;;;;5069995;28;20115;-70
2023/01/08 08:01:17;;;;;;;4.90;3.38;;;;;;;;;;5070786;28;20025;-70
2023/01/08 08:03:43;;;;;;;4.32;3.33;;;;;;;;;;5073222;28;20030;-70
2023/01/08 08:06:09;;;;;;;5.82;3.03;;;;;;;;;;5071434;28;20476;-70
2023/01/08 08:08:36;;;;;;;6.40;2.70;;;;;;;;;;5070737;28;20396;-69
2023/01/08 08:11:02;;;;;;;5.07;2.58;;;;;;;;;;5069840;28;20145;-69
2023/01/08 08:13:28;;;;;;;5.15;2.13;;;;;;;;;;5069848;28;20059;-69
2023/01/08 08:15:55;;;;;;;3.55;2.17;;;;;;;;;;5072738;28;20063;-70
2023/01/08 08:18:21;;;;;;;4.07;2.35;;;;;;;;;;5073573;28;20115;-69
2023/01/08 08:20:50;;;;;;;4.10;2.20;;;;;;;;;;5068954;28;20344;-70
2023/01/08 08:23:16;;;;;;;5.00;2.33;;;;;;;;;;5068902;28;20120;-69
2023/01/08 08:25:43;;;;;;;3.28;2.05;;;;;;;;;;5070144;28;20024;-70
2023/01/08 08:28:09;;;;;;;2.63;1.65;;;;;;;;;;5065748;28;20617;-69
2023/01/08 08:30:36;;;;;;;3.05;2.08;;;;;;;;;;5065271;28;20105;-70
2023/01/08 08:33:03;;;;;;;3.80;2.42;;;;;;;;;;5068615;28;20034;-70
2023/01/08 08:35:29;;;;;;;3.45;2.22;;;;;;;;;;5068483;28;20029;-69
2023/01/08 08:37:56;;;;;;;4.20;1.90;;;;;;;;;;5074671;28;20032;-69
2023/01/08 08:40:22;;;;;;;3.42;2.30;;;;;;;;;;5068364;28;20055;-69
2023/01/08 08:42:48;;;;;;;2.58;2.03;;;;;;;;;;5072992;28;20028;-70
2023/01/08 08:45:15;;;;;;;4.32;2.05;;;;;;;;;;5066805;28;20021;-70
2023/01/08 08:47:41;;;;;;;3.65;2.53;;;;;;;;;;5067822;28;20032;-69
2023/01/08 08:50:07;;;;;;;3.22;2.10;;;;;;;;;;5065598;28;20024;-70
2023/01/08 08:52:36;;;;;;;2.95;1.88;;;;;;;;;;5068183;28;20036;-70
2023/01/08 08:55:02;;;;;;;2.63;1.50;;;;;;;;;;5067722;28;20025;-70
2023/01/08 08:57:28;;;;;;;3.90;1.52;;;;;;;;;;5075358;28;20032;-70
2023/01/08 08:59:54;;;;;;;6.13;1.80;;;;;;;;;;5079849;28;20020;-70
2023/01/08 09:02:21;;;;;;;2.78;1.60;;;;;;;;;;5071044;28;20437;-70
2023/01/08 09:04:47;;;;;;;3.08;1.52;;;;;;;;;;5070456;28;20027;-70
2023/01/08 09:07:13;;;;;;;3.45;1.50;;;;;;;;;;5070730;28;20024;-70
2023/01/08 09:09:39;;;;;;;1.88;1.38;;;;;;;;;;5067015;28;20028;-70
2023/01/08 09:12:06;;;;;;;2.47;1.38;;;;;;;;;;5067074;28;20520;-70
2023/01/08 09:14:32;;;;;;;2.05;1.42;;;;;;;;;;5069959;28;20029;-70
2023/01/08 09:16:58;;;;;;;4.18;1.70;;;;;;;;;;5063403;28;20563;-70
2023/01/08 09:19:24;;;;;;;2.08;1.40;;;;;;;;;;5065395;28;20017;-70
2023/01/08 09:21:51;;;;;;;2.10;1.30;;;;;;;;;;5075626;28;20028;-70
2023/01/08 09:24:17;;;;;;;1.40;1.10;;;;;;;;;;5072274;28;20103;-70
2023/01/08 09:26:43;;;;;;;1.90;1.30;;;;;;;;;;5066337;28;20048;-70
2023/01/08 09:29:09;;;;;;;1.60;1.27;;;;;;;;;;5066739;28;20633;-70
2023/01/08 09:31:35;;;;;;;2.65;1.08;;;;;;;;;;5066196;28;20148;-70
2023/01/08 09:34:01;;;;;;;2.88;1.55;;;;;;;;;;5065906;28;20020;-70
2023/01/08 09:36:28;;;;;;;2.45;1.35;;;;;;;;;;5068477;28;20024;-70
2023/01/08 09:38:54;;;;;;;3.40;1.63;;;;;;;;;;5066424;28;20034;-69
2023/01/08 09:41:28;;;;;;;2.53;1.70;;;;;;;;;;5073817;28;20024;-69
2023/01/08 09:43:55;;;;;;;2.83;1.52;;;;;;;;;;5073961;28;20221;-70
2023/01/08 09:46:24;;;;;;;2.40;1.50;;;;;;;;;;5066626;28;20029;-69
2023/01/08 09:48:51;;;;;;;2.65;1.30;;;;;;;;;;5073032;28;20021;-69
2023/01/08 09:51:19;;;;;;;2.47;1.40;;;;;;;;;;5067187;28;20036;-69
2023/01/08 09:53:45;;;;;;;3.90;1.58;;;;;;;;;;5064680;28;20020;-69
2023/01/08 09:56:14;;;;;;;3.97;1.67;;;;;;;;;;5064882;28;20022;-69
2023/01/08 09:58:51;;;;;;;4.95;1.45;;;;;;;;;;5065141;28;20025;-70
2023/01/08 10:01:20;;;;;;;3.08;1.50;;;;;;;;;;5064228;28;20021;-69
2023/01/08 10:03:58;;;;;;;2.92;1.30;;;;;;;;;;5066125;28;20021;-69
2023/01/08 10:06:24;;;;;;;2.10;1.20;;;;;;;;;;5070186;28;20035;-69
2023/01/08 10:08:51;;;;;;;2.55;1.58;;;;;;;;;;5066227;28;20024;-69
2023/01/08 10:11:18;;;;;;;2.67;1.65;;;;;;;;;;5069669;28;20024;-69
2023/01/08 10:13:52;;;;;;;4.75;1.48;;;;;;;;;;5068824;28;20494;-70
2023/01/08 10:16:29;;;;;;;3.60;1.40;;;;;;;;;;5066019;28;20036;-69
2023/01/08 10:18:56;;;;;;;2.00;1.50;;;;;;;;;;5066490;28;20028;-69
2023/01/08 10:21:28;;;;;;;4.00;1.15;;;;;;;;;;5061085;28;20074;-69
2023/01/08 10:23:54;;;;;;;4.85;1.40;;;;;;;;;;5076343;28;20401;-69
2023/01/08 10:26:31;;;;;;;3.28;1.58;;;;;;;;;;5065971;28;20048;-69
2023/01/08 10:29:06;;;;;;;1.90;1.25;;;;;;;;;;5069266;28;20563;-69
2023/01/08 10:31:32;;;;;;;3.03;1.40;;;;;;;;;;5066818;28;20028;-70
2023/01/08 10:34:07;;;;;;;3.25;1.40;;;;;;;;;;5067875;28;20561;-69
2023/01/08 10:36:38;;;;;;;3.10;1.40;;;;;;;;;;5064762;28;20469;-69
2023/01/08 10:39:05;;;;;;;2.67;1.30;;;;;;;;;;5068793;28;20511;-69
2023/01/08 10:41:36;;;;;;;3.92;1.45;;;;;;;;;;5060698;28;20021;-69
2023/01/08 10:44:07;;;;;;;4.88;2.00;;;;;;;;;;5066548;28;20023;-69
2023/01/08 10:46:40;;;;;;;2.63;1.45;;;;;;;;;;5067385;28;20037;-69
2023/01/08 10:49:07;;;;;;;2.38;1.50;;;;;;;;;;5067054;28;20024;-69
2023/01/08 10:51:33;;;;;;;2.90;1.60;;;;;;;;;;5065640;28;20063;-69
2023/01/08 10:54:01;;;;;;;3.25;1.88;;;;;;;;;;5064932;28;20021;-69
2023/01/08 10:56:40;;;;;;;3.38;1.92;;;;;;;;;;5063669;28;20021;-69
2023/01/08 10:59:06;;;;;;;4.20;2.22;;;;;;;;;;5064161;28;20181;-69
2023/01/08 11:01:32;;;;;;;2.40;1.92;;;;;;;;;;5065142;28;20105;-69
2023/01/08 11:04:00;;;;;;;3.70;2.28;;;;;;;;;;5071687;28;20062;-70
2023/01/08 11:06:27;;;;;;;4.35;2.22;;;;;;;;;;5065142;28;20028;-69
2023/01/08 11:08:55;;;;;;;2.28;1.60;;;;;;;;;;5068578;28;20145;-69
2023/01/08 11:11:21;;;;;;;4.43;2.13;;;;;;;;;;5070128;28;20024;-69
2023/01/08 11:13:51;;;;;;;3.03;1.70;;;;;;;;;;5064668;28;20059;-69
2023/01/08 11:16:17;;;;;;;3.47;1.90;;;;;;;;;;5065940;28;20158;-69
2023/01/08 11:18:46;;;;;;;4.18;2.13;;;;;;;;;;5066119;28;20034;-69
2023/01/08 11:21:38;;;;;;;4.85;1.90;;;;;;;;;;5058803;28;20055;-69
2023/01/08 11:24:11;;;;;;;3.17;1.88;;;;;;;;;;5060355;28;20085;-69
2023/01/08 11:26:40;;;;;;;3.67;1.80;;;;;;;;;;5065302;28;20067;-69
2023/01/08 11:29:13;;;;;;;2.83;1.90;;;;;;;;;;5067383;28;20139;-69
2023/01/08 11:31:39;;;;;;;;;;;;;;;;;;5061644;28;20040;-69
2023/01/08 11:34:10;;;;;;;3.33;1.80;;;;;;;;;;5058160;28;19919;-69
2023/01/08 11:36:42;;;;;;;2.58;1.48;;;;;;;;;;5058161;28;20097;-69
2023/01/08 11:39:08;;;;;;;3.80;1.50;;;;;;;;;;5064013;28;20085;-69
2023/01/08 11:41:57;;;;;;;2.28;1.50;;;;;;;;;;5063211;28;20031;-69
2023/01/08 11:44:33;;;;;;;2.30;1.48;;;;;;;;;;5059692;28;20036;-70
2023/01/08 11:47:05;;;;;;;6.65;1.95;;;;;;;;;;5064154;28;20068;-69
2023/01/08 11:49:45;;;;;;;2.60;1.45;;;;;;;;;;5066516;28;20032;-69
2023/01/08 11:52:20;;;;;;;2.53;1.63;;;;;;;;;;5070192;28;20031;-69
2023/01/08 11:54:56;;;;;;;3.00;1.63;;;;;;;;;;5061225;28;20043;-70
2023/01/08 11:57:22;;;;;;;3.17;1.75;;;;;;;;;;5065862;28;20043;-70
2023/01/08 11:59:54;;;;;;;2.80;1.75;;;;;;;;;;5062213;28;20021;-70
2023/01/08 12:02:39;;;;;;;3.90;1.70;;;;;;;;;;5064049;28;20036;-70
2023/01/08 12:05:24;;;;;;;4.13;1.63;;;;;;;;;;5063573;28;20029;-70
2023/01/08 12:08:03;;;;;;;5.03;2.05;;;;;;;;;;5070336;28;20043;-70
2023/01/08 12:10:33;;;;;;;4.20;2.28;;;;;;;;;;5066917;28;20047;-70
2023/01/08 12:13:18;;;;;;;12.38;3.53;;;;;;;;;;5065931;28;20077;-70
2023/01/08 12:15:50;;;;;;;9.13;2.85;;;;;;;;;;5067885;28;20016;-70
2023/01/08 12:18:46;;;;;;;12.80;3.72;;;;;;;;;;5071714;28;20521;-70
2023/01/08 12:21:22;;;;;;;8.57;2.83;;;;;;;;;;5057339;28;20040;-69
2023/01/08 12:24:00;;;;;;;4.13;2.53;;;;;;;;;;5070402;28;20025;-69
2023/01/08 12:26:45;;;;;;;3.22;2.15;;;;;;;;;;5074700;28;20093;-70
2023/01/08 12:29:19;;;;;;;3.70;1.92;;;;;;;;;;5062607;28;20162;-70
2023/01/08 12:32:06;;;;;;;4.93;1.83;;;;;;;;;;5070093;28;20272;-69
2023/01/08 12:34:45;;;;;;;3.70;1.92;;;;;;;;;;5065906;28;20086;-69
2023/01/08 12:37:18;;;;;;;3.25;1.63;;;;;;;;;;5068900;28;20102;-69
2023/01/08 12:39:50;;;;;;;3.42;1.70;;;;;;;;;;5073821;28;20408;-69
2023/01/08 12:42:23;;;;;;;3.70;1.73;;;;;;;;;;5075942;28;20024;-70
2023/01/08 12:44:50;;;;;;;2.78;1.42;;;;;;;;;;5066081;28;20139;-69
2023/01/08 12:47:20;;;;;;;2.53;1.50;;;;;;;;;;5073188;28;20024;-69
2023/01/08 12:49:50;;;;;;;5.25;1.67;;;;;;;;;;5066143;28;20021;-69
2023/01/08 12:52:36;;;;;;;2.38;1.63;;;;;;;;;;5070234;28;20059;-69
2023/01/08 12:55:16;;;;;;;2.28;1.27;;;;;;;;;;5067461;28;20028;-69
2023/01/08 12:57:47;;;;;;;3.38;1.20;;;;;;;;;;5073838;28;20032;-69
2023/01/08 13:00:26;;;;;;;2.15;1.65;;;;;;;;;;5069717;28;20220;-69
2023/01/08 13:02:52;;;;;;;2.53;1.42;;;;;;;;;;5067228;28;20082;-69
2023/01/08 13:05:19;;;;;;;1.67;1.17;;;;;;;;;;5066406;28;20115;-69
2023/01/08 13:07:46;;;;;;;2.08;1.48;;;;;;;;;;5064996;28;20020;-69
2023/01/08 13:10:31;;;;;;;28.67;2.33;;;;;;;;;;5068657;28;20024;-70
2023/01/08 13:13:00;;;;;;;5.63;1.60;;;;;;;;;;5068988;28;20020;-69
2023/01/08 13:15:27;;;;;;;3.88;1.60;;;;;;;;;;5068105;28;20507;-69
2023/01/08 13:17:54;;;;;;;2.33;1.50;;;;;;;;;;5066669;28;20029;-69
2023/01/08 13:20:22;;;;;;;4.22;1.67;;;;;;;;;;5072839;28;20025;-70
2023/01/08 13:22:55;;;;;;;2.95;1.50;;;;;;;;;;5070400;28;20025;-69
2023/01/08 13:25:21;;;;;;;4.32;1.95;;;;;;;;;;5066698;28;20081;-69
2023/01/08 13:27:48;;;;;;;3.53;1.88;;;;;;;;;;5066420;28;20581;-69
2023/01/08 13:30:32;;;;;;;2.33;1.45;;;;;;;;;;5066211;28;20028;-70
2023/01/08 13:32:58;;;;;;;2.78;1.70;;;;;;;;;;5064169;28;20055;-69
2023/01/08 13:35:26;;;;;;;3.67;1.55;;;;;;;;;;5063326;28;20032;-69
2023/01/08 13:38:05;;;;;;;3.40;1.60;;;;;;;;;;5072282;28;20064;-69
2023/01/08 13:40:43;;;;;;;7.10;1.75;;;;;;;;;;5072585;28;20008;-69
2023/01/08 13:43:14;;;;;;;4.55;1.52;;;;;;;;;;5067810;28;20032;-69
2023/01/08 13:45:41;;;;;;;14.82;1.60;;;;;;;;;;5064554;28;20028;-69
2023/01/08 13:48:20;;;;;;;2.63;1.50;;;;;;;;;;5068413;28;20152;-69
2023/01/08 13:50:46;;;;;;;3.10;1.83;;;;;;;;;;5071912;28;20051;-69
2023/01/08 13:53:13;;;;;;;3.63;1.70;;;;;;;;;;5067079;28;20024;-70
2023/01/08 13:55:41;;;;;;;2.70;1.45;;;;;;;;;;5060881;28;20025;-69
2023/01/08 13:58:14;;;;;;;1.92;1.40;;;;;;;;;;5063959;28;20040;-69
2023/01/08 14:00:40;;;;;;;3.83;1.52;;;;;;;;;;5071067;28;20759;-69
2023/01/08 14:03:20;;;;;;;2.58;1.50;;;;;;;;;;5062270;28;20036;-69
2023/01/08 14:05:47;;;;;;;4.03;2.13;;;;;;;;;;5069320;28;20028;-69
2023/01/08 14:08:25;;;;;;;4.68;1.40;;;;;;;;;;5063146;28;20036;-69
2023/01/08 14:10:55;;;;;;;2.75;1.63;;;;;;;;;;5063422;28;20717;-69
2023/01/08 14:13:24;;;;;;;3.53;2.13;;;;;;;;;;5062937;28;20492;-70
2023/01/08 14:15:50;;;;;;;5.95;1.58;;;;;;;;;;5066056;28;20038;-69
2023/01/08 14:18:17;;;;;;;4.60;1.70;;;;;;;;;;5060356;28;20036;-69
2023/01/08 14:20:44;;;;;;;3.67;1.70;;;;;;;;;;5074612;28;20081;-69
2023/01/08 14:23:30;;;;;;;2.33;1.50;;;;;;;;;;5066884;28;20455;-69
2023/01/08 14:25:58;;;;;;;4.15;1.67;;;;;;;;;;5061828;28;20021;-69
2023/01/08 14:28:24;;;;;;;9.20;1.98;;;;;;;;;;5069714;28;20415;-70
2023/01/08 14:30:52;;;;;;;4.35;1.95;;;;;;;;;;5064810;28;20046;-69
2023/01/08 14:33:20;;;;;;;4.25;1.70;;;;;;;;;;5061473;28;20040;-69
2023/01/08 14:35:48;;;;;;;3.40;2.00;;;;;;;;;;5060198;28;20472;-70
2023/01/08 14:38:14;;;;;;;3.75;1.70;;;;;;;;;;5063598;28;20491;-69
2023/01/08 14:40:43;;;;;;;4.28;2.10;;;;;;;;;;5064434;28;20040;-69
2023/01/08 14:43:11;;;;;;;6.90;2.10;;;;;;;;;;5068671;28;20213;-69
2023/01/08 14:45:38;;;;;;;3.97;1.98;;;;;;;;;;5069560;28;20016;-69
2023/01/08 14:48:10;;;;;;;2.90;1.92;;;;;;;;;;5063884;28;20028;-69
2023/01/08 14:50:38;;;;;;;3.78;1.90;;;;;;;;;;5070572;28;20044;-69
2023/01/08 14:53:28;;;;;;;4.13;2.05;;;;;;;;;;5066970;28;20028;-70
2023/01/08 14:55:55;;;;;;;3.08;2.22;;;;;;;;;;5063036;28;20097;-70